createdAt,value
2022-11-14T00:02:16.144Z,6.114197
2022-11-14T00:05:41.312Z,6.063843
2022-11-14T00:09:06.534Z,6.063843
2022-11-14T00:12:31.873Z,6.043701
2022-11-14T00:15:56.962Z,6.083984
2022-11-14T00:19:22.209Z,6.144409
2022-11-14T00:22:47.398Z,6.174622
2022-11-14T00:26:12.646Z,6.224976
2022-11-14T00:29:38.005Z,6.083984
2022-11-14T00:33:03.105Z,6.043701
2022-11-14T00:36:28.342Z,6.094055
2022-11-14T00:39:53.578Z,6.063843
2022-11-14T00:43:18.824Z,6.114197
2022-11-14T00:46:44.159Z,6.03363
2022-11-14T00:50:09.267Z,6.003418
2022-11-14T00:53:34.478Z,5.973206
2022-11-14T00:56:59.669Z,5.942993
2022-11-14T01:00:24.931Z,5.862427
2022-11-14T01:03:50.200Z,5.711365
2022-11-14T01:07:15.340Z,5.610657
2022-11-14T01:10:40.571Z,5.610657
2022-11-14T01:14:05.819Z,5.540161
2022-11-14T01:17:31.030Z,5.509949
2022-11-14T01:20:56.372Z,5.540161
2022-11-14T01:24:21.466Z,5.560303
2022-11-14T01:27:46.667Z,5.580444
2022-11-14T01:31:11.877Z,5.630798
2022-11-14T01:34:37.091Z,5.570374
2022-11-14T01:38:02.417Z,5.560303
2022-11-14T01:41:27.520Z,5.53009
2022-11-14T01:44:52.750Z,5.540161
2022-11-14T01:48:17.987Z,5.570374
2022-11-14T01:51:43.242Z,5.600586
2022-11-14T01:55:08.594Z,5.570374
2022-11-14T01:58:33.704Z,5.610657
2022-11-14T02:01:59.013Z,5.721436
2022-11-14T02:05:24.181Z,5.671082
2022-11-14T02:08:49.404Z,5.681152
2022-11-14T02:12:14.729Z,5.640869
2022-11-14T02:15:39.831Z,5.580444
2022-11-14T02:19:05.068Z,5.640869
2022-11-14T02:22:30.287Z,5.741577
2022-11-14T02:25:55.506Z,5.812073
2022-11-14T02:29:20.850Z,5.90271
2022-11-14T02:33:12.093Z,5.912781
2022-11-14T02:36:11.185Z,5.993347
2022-11-14T02:39:36.398Z,5.973206
2022-11-14T02:43:01.626Z,5.963135
2022-11-14T02:46:26.966Z,5.932922
2022-11-14T02:49:52.066Z,5.932922
2022-11-14T02:53:17.279Z,5.892639
2022-11-14T02:56:42.502Z,5.932922
2022-11-14T03:00:13.463Z,5.963135
2022-11-14T03:03:33.071Z,5.822144
2022-11-14T03:06:58.224Z,5.78186
2022-11-14T03:10:23.400Z,5.761719
2022-11-14T03:13:48.623Z,5.761719
2022-11-14T03:17:13.850Z,5.741577
2022-11-14T03:20:39.174Z,5.721436
2022-11-14T03:24:04.298Z,5.630798
2022-11-14T03:27:29.544Z,5.53009
2022-11-14T03:30:54.785Z,5.39917
2022-11-14T03:34:20.028Z,5.238037
2022-11-14T03:37:45.425Z,5.217896
2022-11-14T03:41:10.525Z,5.248108
2022-11-14T03:44:35.755Z,5.197754
2022-11-14T03:48:01.024Z,5.117188
2022-11-14T03:51:26.235Z,5.197754
2022-11-14T03:54:51.478Z,5.238037
2022-11-14T03:58:16.678Z,5.167542
2022-11-14T04:01:41.892Z,5.238037
2022-11-14T04:05:07.170Z,5.238037
2022-11-14T04:08:32.736Z,5.217896
2022-11-14T04:11:57.725Z,5.217896
2022-11-14T04:15:22.804Z,5.197754
2022-11-14T04:18:48.026Z,5.177612
2022-11-14T04:22:13.225Z,5.097046
2022-11-14T04:25:38.451Z,5.1474
2022-11-14T04:29:03.797Z,5.197754
2022-11-14T04:32:28.892Z,5.238037
2022-11-14T04:35:54.168Z,5.26825
2022-11-14T04:39:19.463Z,5.328674
2022-11-14T04:42:44.739Z,5.27832
2022-11-14T04:46:10.081Z,5.238037
2022-11-14T04:49:35.181Z,5.238037
2022-11-14T04:53:00.394Z,5.26825
2022-11-14T04:56:25.670Z,5.308533
2022-11-14T04:59:50.883Z,5.358887
2022-11-14T05:03:16.130Z,5.348816
2022-11-14T05:06:41.373Z,5.308533
2022-11-14T05:10:06.616Z,5.308533
2022-11-14T05:13:31.947Z,5.27832
2022-11-14T05:16:57.174Z,5.197754
2022-11-14T05:20:22.470Z,5.248108
2022-11-14T05:23:47.824Z,5.26825
2022-11-14T05:27:13.010Z,5.26825
2022-11-14T05:30:38.230Z,5.27832
2022-11-14T05:34:03.457Z,5.308533
2022-11-14T05:37:28.763Z,5.248108
2022-11-14T05:40:53.942Z,5.26825
2022-11-14T05:44:19.225Z,5.27832
2022-11-14T05:47:44.438Z,5.248108
2022-11-14T05:51:09.647Z,5.1474
2022-11-14T05:54:34.922Z,5.036621
2022-11-14T05:58:00.107Z,4.996338
2022-11-14T06:01:25.308Z,5.036621
2022-11-14T06:04:50.534Z,5.066833
2022-11-14T06:08:15.793Z,5.127258
2022-11-14T06:11:41.070Z,5.016479
2022-11-14T06:15:06.264Z,5.056763
2022-11-14T06:18:31.871Z,5.036621
2022-11-14T06:21:56.781Z,5.117188
2022-11-14T06:25:22.041Z,5.086975
2022-11-14T06:28:47.311Z,5.097046
2022-11-14T06:32:12.515Z,5.167542
2022-11-14T06:35:37.792Z,5.238037
2022-11-14T06:39:03.106Z,5.308533
2022-11-14T06:42:28.327Z,5.419312
2022-11-14T06:45:53.560Z,5.429382
2022-11-14T06:49:18.756Z,5.509949
2022-11-14T06:52:43.988Z,5.429382
2022-11-14T06:56:09.239Z,5.449524
2022-11-14T06:59:34.917Z,5.459595
2022-11-14T07:03:00.250Z,5.53009
2022-11-14T07:06:25.410Z,5.570374
2022-11-14T07:09:50.719Z,5.570374
2022-11-14T07:13:15.931Z,5.580444
2022-11-14T07:16:41.210Z,5.600586
2022-11-14T07:20:06.529Z,5.540161
2022-11-14T07:23:31.762Z,5.600586
2022-11-14T07:26:56.991Z,5.580444
2022-11-14T07:30:22.221Z,5.65094
2022-11-14T07:33:47.434Z,5.721436
2022-11-14T07:37:12.681Z,5.791931
2022-11-14T07:40:37.868Z,5.973206
2022-11-14T07:44:03.099Z,6.083984
2022-11-14T07:47:28.319Z,6.013489
2022-11-14T07:50:53.524Z,6.03363
2022-11-14T07:54:18.773Z,5.90271
2022-11-14T07:57:48.009Z,5.892639
2022-11-14T08:01:09.251Z,5.832214
2022-11-14T08:04:34.434Z,5.932922
2022-11-14T08:07:59.700Z,5.993347
2022-11-14T08:11:34.808Z,6.003418
2022-11-14T08:14:50.162Z,6.013489
2022-11-14T08:18:15.386Z,6.03363
2022-11-14T08:21:40.629Z,6.15448
2022-11-14T08:25:05.850Z,6.184692
2022-11-14T08:28:31.466Z,6.214905
2022-11-14T08:31:59.879Z,6.365967
2022-11-14T08:35:21.526Z,6.40625
2022-11-14T08:38:46.754Z,6.506958
2022-11-14T08:42:12.002Z,6.607666
2022-11-14T08:45:37.251Z,6.688232
2022-11-14T08:49:02.448Z,6.668091
2022-11-14T08:52:27.724Z,6.839294
2022-11-14T08:55:52.948Z,6.940002
2022-11-14T08:59:18.172Z,7.020569
2022-11-14T09:02:43.421Z,7.101135
2022-11-14T09:06:08.603Z,7.151489
2022-11-14T09:09:33.832Z,7.211914
2022-11-14T09:12:59.064Z,7.312622
2022-11-14T09:16:24.284Z,7.403259
2022-11-14T09:19:49.530Z,7.423401
2022-11-14T09:23:14.745Z,7.483826
2022-11-14T09:26:39.960Z,7.524109
2022-11-14T09:30:05.206Z,7.685242
2022-11-14T09:33:30.770Z,7.78595
2022-11-14T09:36:55.679Z,7.78595
2022-11-14T09:40:20.867Z,7.846375
2022-11-14T09:43:46.111Z,7.866516
2022-11-14T09:47:11.383Z,7.926941
2022-11-14T09:50:36.638Z,8.047791
2022-11-14T09:54:01.957Z,8.249207
2022-11-14T09:57:27.162Z,8.380127
2022-11-14T10:00:52.423Z,8.480835
2022-11-14T10:04:17.644Z,8.531189
2022-11-14T10:07:42.892Z,8.561401
2022-11-14T10:11:08.169Z,8.551331
2022-11-14T10:14:33.388Z,8.652039
2022-11-14T10:17:58.613Z,8.762817
2022-11-14T10:21:23.835Z,8.944092
2022-11-14T10:24:49.096Z,9.014587
2022-11-14T10:28:14.386Z,9.125366
2022-11-14T10:31:39.593Z,9.226074
2022-11-14T10:35:04.831Z,9.326782
2022-11-14T10:38:30.472Z,9.467773
2022-11-14T10:41:59.724Z,9.558411
2022-11-14T10:45:20.553Z,9.649048
2022-11-14T10:48:45.749Z,9.749756
2022-11-14T10:52:10.995Z,9.759827
2022-11-14T10:56:02.884Z,9.840393
2022-11-14T10:59:01.442Z,9.93103
2022-11-14T11:02:26.694Z,10.011597
2022-11-14T11:05:51.878Z,10.122375
2022-11-14T11:09:17.162Z,10.293579
2022-11-14T11:12:42.352Z,10.454712
2022-11-14T11:16:07.552Z,10.545349
2022-11-14T11:19:32.812Z,10.635986
2022-11-14T11:23:01.004Z,10.776978
2022-11-14T11:26:23.211Z,10.857544
2022-11-14T11:29:48.436Z,10.958252
2022-11-14T11:33:13.665Z,11.028748
2022-11-14T11:36:38.936Z,11.089172
2022-11-14T11:40:04.158Z,11.139526
2022-11-14T11:43:38.685Z,11.139526
2022-11-14T11:46:54.701Z,11.169739
2022-11-14T11:50:19.927Z,11.270447
2022-11-14T11:53:45.187Z,11.320801
2022-11-14T11:57:10.399Z,11.371155
2022-11-14T12:00:35.612Z,11.461792
2022-11-14T12:04:00.902Z,11.653137
2022-11-14T12:07:26.138Z,11.804199
2022-11-14T12:10:51.355Z,11.864624
2022-11-14T12:14:16.615Z,11.884766
2022-11-14T12:17:41.847Z,11.93512
2022-11-14T12:21:07.078Z,11.975403
2022-11-14T12:24:32.329Z,11.985474
2022-11-14T12:27:57.635Z,11.975403
2022-11-14T12:31:22.823Z,11.975403
2022-11-14T12:34:48.107Z,12.005615
2022-11-14T12:38:13.254Z,12.096252
2022-11-14T12:41:38.487Z,12.035828
2022-11-14T12:45:03.720Z,12.096252
2022-11-14T12:48:28.933Z,12.116394
2022-11-14T12:51:54.156Z,12.126465
2022-11-14T12:55:19.369Z,12.015686
2022-11-14T12:58:44.609Z,12.035828
2022-11-14T13:02:09.853Z,12.015686
2022-11-14T13:05:35.077Z,12.005615
2022-11-14T13:09:00.291Z,12.015686
2022-11-14T13:12:25.558Z,12.045898
2022-11-14T13:15:50.832Z,12.086182
2022-11-14T13:19:16.087Z,12.136536
2022-11-14T13:22:41.313Z,12.136536
2022-11-14T13:26:06.562Z,12.126465
2022-11-14T13:29:31.812Z,12.096252
2022-11-14T13:32:57.038Z,12.136536
2022-11-14T13:36:22.294Z,12.156677
2022-11-14T13:39:47.480Z,12.18689
2022-11-14T13:43:12.713Z,12.136536
2022-11-14T13:46:37.944Z,12.096252
2022-11-14T13:50:03.215Z,12.045898
2022-11-14T13:53:28.704Z,12.005615
2022-11-14T13:56:53.708Z,11.955261
2022-11-14T14:00:20.985Z,11.93512
2022-11-14T14:03:44.171Z,11.93512
2022-11-14T14:07:09.463Z,11.834412
2022-11-14T14:10:34.706Z,11.733704
2022-11-14T14:13:59.855Z,11.723633
2022-11-14T14:17:25.162Z,11.622925
2022-11-14T14:20:50.411Z,11.602783
2022-11-14T14:24:16.211Z,11.542358
2022-11-14T14:27:41.477Z,11.471863
2022-11-14T15:04:15.401Z,10.93811
2022-11-14T15:07:40.672Z,10.877686
2022-11-14T15:11:06.007Z,10.756836
2022-11-14T15:14:31.275Z,10.67627
2022-11-14T15:17:56.547Z,10.67627
2022-11-14T15:21:21.861Z,10.635986
2022-11-14T15:24:47.161Z,10.515137
2022-11-14T15:28:13.134Z,10.414429
2022-11-14T15:31:37.743Z,10.293579
2022-11-14T15:35:02.996Z,10.152588
2022-11-14T15:38:43.416Z,10.112305
2022-11-14T15:41:53.624Z,10.041809
2022-11-14T15:45:18.912Z,9.870605
2022-11-14T15:48:44.231Z,9.830322
2022-11-14T15:52:09.487Z,9.659119
2022-11-14T15:55:34.779Z,9.608765
2022-11-14T15:59:00.092Z,9.467773
2022-11-14T16:02:25.378Z,9.326782
2022-11-14T16:05:50.679Z,9.286499
2022-11-14T16:09:15.989Z,9.165649
2022-11-14T16:12:41.321Z,8.994446
2022-11-14T16:16:06.624Z,8.712463
2022-11-14T16:19:31.962Z,8.662109
2022-11-14T16:22:57.231Z,8.581543
2022-11-14T16:26:22.514Z,8.470764
2022-11-14T16:29:47.815Z,8.380127
2022-11-14T16:33:13.066Z,8.400269
2022-11-14T16:36:38.362Z,8.370056
2022-11-14T16:40:03.651Z,8.329773
2022-11-14T16:43:29.200Z,8.148499
2022-11-14T16:46:54.209Z,8.098145
2022-11-14T16:50:19.472Z,8.03772
2022-11-14T16:53:44.754Z,7.926941
2022-11-14T16:57:10.038Z,7.967224
2022-11-14T17:00:35.312Z,7.977295
2022-11-14T17:04:00.613Z,7.997437
2022-11-14T17:07:25.900Z,7.997437
2022-11-14T17:10:51.180Z,7.997437
2022-11-14T17:14:16.486Z,7.91687
2022-11-14T17:17:41.740Z,7.796021
2022-11-14T17:21:07.058Z,7.705383
2022-11-14T17:24:32.325Z,7.644958
2022-11-14T17:27:57.578Z,7.685242
2022-11-14T17:31:22.851Z,7.685242
2022-11-14T17:34:48.242Z,7.675171
2022-11-14T17:38:13.532Z,7.574463
2022-11-14T17:41:38.769Z,7.604675
2022-11-14T17:45:04.051Z,7.584534
2022-11-14T17:48:29.715Z,7.574463
2022-11-14T17:51:54.663Z,7.503967
2022-11-14T17:55:19.948Z,7.503967
2022-11-14T17:58:45.256Z,7.53418
2022-11-14T18:02:10.614Z,7.524109
2022-11-14T18:05:35.900Z,7.463684
2022-11-14T18:09:01.249Z,7.483826
2022-11-14T18:12:26.545Z,7.453613
2022-11-14T18:15:51.921Z,7.433472
2022-11-14T18:19:17.248Z,7.453613
2022-11-14T18:22:42.569Z,7.493896
2022-11-14T18:26:07.900Z,7.503967
2022-11-14T18:29:33.255Z,7.524109
2022-11-14T18:32:58.503Z,7.503967
2022-11-14T18:36:23.838Z,7.463684
2022-11-14T18:39:49.118Z,7.453613
2022-11-14T18:43:14.444Z,7.322693
2022-11-14T18:46:39.764Z,7.28241
2022-11-14T18:50:05.051Z,7.171631
2022-11-14T18:53:30.559Z,7.252197
2022-11-14T18:56:55.646Z,7.352905
2022-11-14T19:00:21.009Z,7.393188
2022-11-14T19:03:46.333Z,7.433472
2022-11-14T19:07:11.645Z,7.373047
2022-11-14T19:10:36.909Z,7.393188
2022-11-14T19:14:02.240Z,7.322693
2022-11-14T19:17:27.510Z,7.352905
2022-11-14T19:20:52.872Z,7.322693
2022-11-14T19:24:18.176Z,7.272339
2022-11-14T19:27:43.503Z,7.252197
2022-11-14T19:31:08.808Z,7.302551
2022-11-14T19:34:34.156Z,7.322693
2022-11-14T19:37:59.949Z,7.373047
2022-11-14T19:41:25.706Z,7.403259
2022-11-14T19:44:51.078Z,7.403259
2022-11-14T19:48:16.395Z,7.393188
2022-11-14T19:51:41.669Z,7.373047
2022-11-14T19:55:07.040Z,7.352905
2022-11-14T19:58:32.315Z,7.322693
2022-11-14T20:01:57.670Z,7.272339
2022-11-14T20:05:22.909Z,7.28241
2022-11-14T20:08:48.216Z,7.272339
2022-11-14T20:12:13.522Z,7.28241
2022-11-14T20:15:38.780Z,7.242126
2022-11-14T20:19:04.043Z,7.211914
2022-11-14T20:22:29.364Z,7.131348
2022-11-14T20:25:54.660Z,7.101135
2022-11-14T20:29:19.997Z,7.060852
2022-11-14T20:32:45.308Z,7.070923
2022-11-14T20:36:10.614Z,7.03064
2022-11-14T20:39:35.970Z,7.03064
2022-11-14T20:43:01.293Z,7.020569
2022-11-14T20:46:26.725Z,7.03064
2022-11-14T20:49:51.998Z,6.970215
2022-11-14T20:53:17.214Z,6.90979
2022-11-14T20:56:42.446Z,6.879578
2022-11-14T21:00:07.699Z,6.849365
2022-11-14T21:03:33.293Z,6.768799
2022-11-14T21:06:58.299Z,6.698303
2022-11-14T21:10:23.462Z,6.668091
2022-11-14T21:13:48.728Z,6.668091
2022-11-14T21:17:14.024Z,6.708374
2022-11-14T21:20:39.274Z,6.728516
2022-11-14T21:24:04.538Z,6.768799
2022-11-14T21:27:29.809Z,6.90979
2022-11-14T21:30:55.066Z,7.03064
2022-11-14T21:34:20.365Z,7.272339
2022-11-14T21:37:45.631Z,7.433472
2022-11-14T21:41:10.863Z,7.604675
2022-11-14T21:44:36.070Z,7.554321
2022-11-14T21:48:01.348Z,7.242126
2022-11-14T21:51:26.647Z,6.78894
2022-11-14T21:54:51.924Z,6.557312
2022-11-14T21:58:17.149Z,6.376038
2022-11-14T22:01:42.459Z,6.355896
2022-11-14T22:05:07.689Z,6.396179
2022-11-14T22:08:32.941Z,6.365967
2022-11-14T22:11:58.284Z,6.325684
2022-11-14T22:15:23.497Z,6.396179
2022-11-14T22:18:48.739Z,6.577454
2022-11-14T22:22:13.973Z,6.698303
2022-11-14T22:25:39.225Z,6.849365
2022-11-14T22:29:04.583Z,6.919861
2022-11-14T22:32:29.798Z,7.060852
2022-11-14T22:35:55.055Z,7.252197
2022-11-14T22:39:20.330Z,7.483826
2022-11-14T22:42:45.598Z,7.675171
2022-11-14T22:46:10.869Z,7.816162
2022-11-14T22:49:36.043Z,7.886658
2022-11-14T22:53:01.282Z,7.967224
2022-11-14T22:56:26.525Z,8.047791
2022-11-14T22:59:51.721Z,8.098145
2022-11-14T23:03:20.334Z,8.148499
2022-11-14T23:06:42.176Z,8.198853
2022-11-14T23:10:07.439Z,8.198853
2022-11-14T23:13:32.849Z,8.218994
2022-11-14T23:16:57.967Z,8.299561
2022-11-14T23:20:23.266Z,8.359985
2022-11-14T23:23:48.461Z,8.279419
2022-11-14T23:27:13.786Z,8.249207
2022-11-14T23:30:39.018Z,8.329773
2022-11-14T23:34:04.248Z,8.359985
2022-11-14T23:37:29.599Z,8.400269
2022-11-14T23:40:54.839Z,8.430481
2022-11-14T23:44:20.134Z,8.440552
2022-11-14T23:47:45.421Z,8.410339
2022-11-14T23:51:10.666Z,8.410339
2022-11-14T23:54:35.959Z,8.410339
2022-11-14T23:58:01.245Z,8.380127
